Time;durP1;ratioP1;P1;durP2;ratioP2;P2;SDS_P1;SDS_P2;PMS_P1;PMS_P2;Temp;Humidity;BMP_temperature;BMP_pressure;BME280_temperature;BME280_humidity;BME280_pressure;Samples;Min_cycle;Max_cycle;Signal;HPM_P1;HPM_P2
2021/12/03 00:02:07;;;;;;;17.87;11.60;;;;;;;0.22;90.49;100991.91;5113813;28;20055;-79
2021/12/03 00:04:32;;;;;;;18.33;12.80;;;;;;;0.25;90.02;100998.84;5131383;27;20459;-79
2021/12/03 00:06:58;;;;;;;15.57;11.80;;;;;;;0.19;90.35;100989.34;5131645;27;20039;-78
2021/12/03 00:09:23;;;;;;;19.80;13.00;;;;;;;0.12;90.02;100985.13;5132691;27;20107;-79
2021/12/03 00:11:49;;;;;;;25.57;14.10;;;;;;;0.07;90.70;100976.50;5132635;27;20030;-77
2021/12/03 00:14:14;;;;;;;22.97;14.40;;;;;;;0.16;90.31;100985.94;5115212;28;20031;-78
2021/12/03 00:16:40;;;;;;;18.83;13.90;;;;;;;0.03;91.13;100974.84;5114689;28;20023;-78
2021/12/03 00:19:05;;;;;;;22.27;14.80;;;;;;;0.15;90.92;100992.91;5133000;28;20070;-78
2021/12/03 00:21:31;;;;;;;22.90;15.33;;;;;;;0.02;91.14;100977.47;5114866;28;20015;-79
2021/12/03 00:23:56;;;;;;;21.03;14.77;;;;;;;0.05;90.74;100978.25;5133494;28;20098;-79
2021/12/03 00:26:22;;;;;;;25.67;15.40;;;;;;;0.06;91.52;100990.47;5133261;28;20023;-78
2021/12/03 00:28:48;;;;;;;20.57;16.67;;;;;;;0.09;90.84;100995.63;5133045;28;20454;-80
2021/12/03 00:31:14;;;;;;;26.07;15.50;;;;;;;0.03;91.47;100985.28;5114414;28;20393;-79
2021/12/03 00:33:42;;;;;;;24.23;14.67;;;;;;;0.03;90.81;100985.28;5133469;28;20024;-79
2021/12/03 00:36:09;;;;;;;27.23;16.50;;;;;;;0.09;91.52;100994.75;5132680;28;20071;-78
2021/12/03 00:38:40;;;;;;;21.83;16.53;;;;;;;0.08;91.49;101001.75;5114731;28;20544;-78
2021/12/03 00:41:13;;;;;;;26.37;18.53;;;;;;;0.04;91.41;100991.38;5114726;28;20042;-79
2021/12/03 00:43:43;;;;;;;31.73;19.27;;;;;;;0.05;91.91;100996.56;5114901;28;20473;-78
2021/12/03 00:46:10;;;;;;;29.47;18.53;;;;;;;-0.15;91.46;100952.47;5133119;28;20120;-78
2021/12/03 00:48:37;;;;;;;25.20;17.50;;;;;;;0.02;91.34;100991.38;5132843;28;20078;-78
2021/12/03 00:51:02;;;;;;;29.63;18.40;;;;;;;0.07;91.46;101007.88;5132855;28;20028;-79
2021/12/03 00:53:28;;;;;;;31.87;19.70;;;;;;;0.10;91.53;100993.88;5129189;28;20027;-78
2021/12/03 00:55:53;;;;;;;31.67;19.93;;;;;;;0.10;91.41;101001.72;5112766;28;20108;-78
2021/12/03 00:58:18;;;;;;;35.50;21.73;;;;;;;0.12;92.00;101008.66;5123443;28;20465;-78
2021/12/03 01:00:44;;;;;;;32.93;22.80;;;;;;;0.03;91.90;101006.22;5132814;28;20060;-78
2021/12/03 01:03:09;;;;;;;31.57;22.53;;;;;;;0.05;91.72;101000.94;5135849;27;20051;-79
2021/12/03 01:05:35;;;;;;;36.20;22.93;;;;;;;0.06;92.19;101000.03;5137183;27;20462;-78
2021/12/03 01:08:01;;;;;;;35.33;23.70;;;;;;;0.10;92.14;100999.97;5132199;27;20046;-79
2021/12/03 01:10:27;;;;;;;33.17;24.57;;;;;;;0.19;91.67;101009.41;5137018;27;20019;-79
2021/12/03 01:12:54;;;;;;;35.03;24.33;;;;;;;0.12;92.21;101011.28;5136364;27;20093;-79
2021/12/03 01:15:26;;;;;;;41.27;25.27;;;;;;;0.03;92.48;101002.69;5137179;27;20072;-79
2021/12/03 01:17:52;;;;;;;39.43;25.60;;;;;;;0.11;91.83;101021.75;5136135;27;20038;-79
2021/12/03 01:20:18;;;;;;;36.10;24.40;;;;;;;0.02;92.19;101004.47;5136759;27;20048;-79
2021/12/03 01:22:46;;;;;;;33.57;24.87;;;;;;;0.01;92.18;101013.22;5136608;27;20031;-79
2021/12/03 01:25:12;;;;;;;36.00;24.77;;;;;;;-0.01;92.41;101017.59;5136355;27;20452;-78
2021/12/03 01:27:38;;;;;;;30.83;23.67;;;;;;;-0.06;92.76;101008.94;5136009;27;20030;-79
2021/12/03 01:30:07;;;;;;;33.37;23.57;;;;;;;-0.04;92.39;101004.56;5135700;27;20027;-78
2021/12/03 01:32:33;;;;;;;36.85;23.65;;;;;;;-0.01;92.69;101005.38;5132796;27;20029;-78
2021/12/03 01:34:58;;;;;;;38.27;22.40;;;;;;;0.06;92.45;101011.38;5136499;27;20027;-79
2021/12/03 01:37:24;;;;;;;28.60;21.87;;;;;;;-0.07;92.45;100992.41;5135921;27;20047;-78
2021/12/03 01:39:49;;;;;;;35.03;24.23;;;;;;;0.05;93.19;101009.63;5135998;27;20041;-78
2021/12/03 01:42:15;;;;;;;32.97;22.70;;;;;;;-0.06;93.20;101003.72;5136144;27;20538;-79
2021/12/03 01:44:40;;;;;;;34.67;22.07;;;;;;;0.01;93.04;101015.81;5135772;27;20089;-78
2021/12/03 01:47:05;;;;;;;32.10;22.80;;;;;;;0.12;92.48;101024.34;5135768;27;20076;-79
2021/12/03 01:49:31;;;;;;;35.67;23.40;;;;;;;0.08;93.03;101016.56;5136003;27;20027;-79
2021/12/03 01:51:56;;;;;;;37.13;23.07;;;;;;;0.05;93.16;101003.56;5116851;27;20442;-79
2021/12/03 01:54:21;;;;;;;41.13;24.87;;;;;;;0.10;93.38;100999.97;5134699;27;20023;-79
2021/12/03 01:56:47;;;;;;;51.10;29.07;;;;;;;0.09;92.63;100993.03;5117338;27;20512;-78
2021/12/03 01:59:13;;;;;;;58.13;32.47;;;;;;;0.13;93.75;100994.69;5135763;27;20079;-80
2021/12/03 02:01:38;;;;;;;49.20;31.47;;;;;;;0.14;93.60;100992.94;5135107;27;20019;-79
2021/12/03 02:04:04;;;;;;;56.13;34.00;;;;;;;0.05;93.58;100996.56;5135402;27;20058;-79
2021/12/03 02:06:30;;;;;;;66.40;37.57;;;;;;;0.27;93.48;101010.13;5135457;27;20023;-79
2021/12/03 02:08:56;;;;;;;77.13;41.63;;;;;;;0.08;94.09;101000.88;5135203;27;20027;-79
2021/12/03 02:11:22;;;;;;;77.57;42.33;;;;;;;0.12;94.06;101005.16;5116868;27;20466;-79
2021/12/03 02:13:48;;;;;;;82.93;43.87;;;;;;;0.27;93.91;101014.50;5133883;27;20035;-78
2021/12/03 02:16:15;;;;;;;90.43;46.87;;;;;;;0.26;93.95;101012.75;5135276;27;20062;-78
2021/12/03 02:18:40;;;;;;;96.90;46.60;;;;;;;0.28;93.87;101027.53;5134544;27;20030;-79
2021/12/03 02:21:08;;;;;;;90.20;47.33;;;;;;;0.31;93.92;101030.09;5134756;27;20032;-78
2021/12/03 02:23:34;;;;;;;90.37;49.40;;;;;;;0.33;94.16;101032.72;5123685;27;20038;-79
2021/12/03 02:26:00;;;;;;;92.33;48.30;;;;;;;0.25;94.25;101005.81;5129390;27;20470;-79
2021/12/03 02:28:28;;;;;;;87.90;46.37;;;;;;;0.42;94.08;101025.56;5116442;27;20054;-79
2021/12/03 02:30:54;;;;;;;86.33;45.23;;;;;;;0.36;94.61;101006.50;5134831;27;20030;-77
2021/12/03 02:33:19;;;;;;;84.27;45.07;;;;;;;0.34;94.44;100995.19;5135210;27;20072;-79
2021/12/03 02:35:45;;;;;;;87.87;44.93;;;;;;;0.33;94.41;101006.56;5134788;27;20019;-79
2021/12/03 02:38:14;;;;;;;80.80;45.03;;;;;;;0.51;94.02;101000.09;5134610;27;20011;-79
2021/12/03 02:40:40;;;;;;;79.07;44.13;;;;;;;0.47;94.55;101011.50;5135410;27;20027;-78
2021/12/03 02:43:06;;;;;;;82.67;41.00;;;;;;;0.41;94.58;101002.00;5134411;27;20065;-79
2021/12/03 02:45:32;;;;;;;76.17;41.37;;;;;;;0.43;94.80;100995.00;5134770;27;20497;-79
2021/12/03 02:48:02;;;;;;;67.50;37.90;;;;;;;0.50;94.50;101011.44;5134965;27;20031;-80
2021/12/03 02:50:27;;;;;;;;;;;;;;;0.62;94.25;101006.84;5135384;27;20023;-78
2021/12/03 02:52:53;;;;;;;51.73;30.80;;;;;;;0.40;93.87;100979.38;5149206;27;19918;-79
2021/12/03 02:55:19;;;;;;;69.37;35.73;;;;;;;0.42;94.32;100990.69;5117531;27;20026;-80
2021/12/03 02:57:45;;;;;;;68.63;37.37;;;;;;;0.47;94.40;100994.03;5134560;27;20461;-79
2021/12/03 03:00:15;;;;;;;64.33;36.23;;;;;;;0.40;94.61;100995.06;5134240;27;20136;-80
2021/12/03 03:02:40;;;;;;;67.85;35.35;;;;;;;0.51;94.50;100995.72;5137279;27;20076;-79
2021/12/03 03:05:08;;;;;;;69.03;36.57;;;;;;;0.42;94.38;100985.44;5121235;27;20047;-79
2021/12/03 03:07:33;;;;;;;72.17;37.93;;;;;;;0.45;94.77;100993.25;5112300;27;20031;-79
2021/12/03 03:09:58;;;;;;;72.00;37.47;;;;;;;0.42;94.42;100972.38;5131824;27;20394;-79
2021/12/03 03:12:24;;;;;;;76.17;38.83;;;;;;;0.50;94.72;100987.91;5134088;27;20031;-79
2021/12/03 03:15:00;;;;;;;70.77;38.50;;;;;;;0.47;94.24;100982.72;5134554;27;20038;-79
2021/12/03 03:17:28;;;;;;;74.73;42.13;;;;;;;0.53;94.09;100987.84;5134426;27;20026;-79
2021/12/03 03:19:56;;;;;;;76.50;41.27;;;;;;;0.47;94.67;100973.13;5134217;27;20027;-80
2021/12/03 03:22:23;;;;;;;76.90;40.80;;;;;;;0.44;94.55;100970.56;5133744;27;20031;-79
2021/12/03 03:24:50;;;;;;;84.90;42.23;;;;;;;0.56;94.34;100979.94;5133978;27;20039;-78
2021/12/03 03:27:16;;;;;;;85.03;44.43;;;;;;;0.43;95.02;100976.69;5115788;27;20023;-79
2021/12/03 03:29:44;;;;;;;88.10;44.33;;;;;;;0.42;95.12;100970.59;5134147;27;20059;-78
2021/12/03 03:32:10;;;;;;;73.87;42.10;;;;;;;0.54;94.61;100982.59;5133387;27;20035;-78
2021/12/03 03:34:35;;;;;;;76.13;40.67;;;;;;;0.56;94.79;100980.81;5133600;27;20400;-79
2021/12/03 03:37:01;;;;;;;77.53;41.77;;;;;;;0.54;94.60;100990.44;5115969;27;20026;-78
2021/12/03 03:39:27;;;;;;;81.40;40.70;;;;;;;0.54;94.68;100994.81;5133493;27;20080;-79
2021/12/03 03:41:52;;;;;;;74.33;41.50;;;;;;;0.30;94.78;100949.91;5134023;27;20055;-78
2021/12/03 03:44:18;;;;;;;79.60;40.53;;;;;;;0.56;95.10;100990.38;5133413;27;20388;-78
2021/12/03 03:46:44;;;;;;;84.23;43.77;;;;;;;0.52;94.84;100984.38;5134022;27;20026;-78
2021/12/03 03:49:10;;;;;;;73.67;39.50;;;;;;;0.47;95.13;100967.88;5133740;27;20058;-79
2021/12/03 03:51:36;;;;;;;87.93;44.57;;;;;;;0.47;95.20;100965.25;5133368;27;20073;-79
2021/12/03 03:54:02;;;;;;;79.90;37.17;;;;;;;0.62;94.88;100983.31;5133671;27;20079;-79
2021/12/03 03:56:29;;;;;;;91.70;45.47;;;;;;;0.55;94.94;100971.22;5133743;27;20054;-79
2021/12/03 03:58:55;;;;;;;95.20;46.73;;;;;;;0.64;94.95;100985.88;5134147;27;20087;-78
2021/12/03 04:01:20;;;;;;;101.37;48.10;;;;;;;0.55;95.33;100960.75;5133253;27;20022;-78
2021/12/03 04:03:46;;;;;;;92.97;43.37;;;;;;;0.62;95.51;100966.75;5133595;27;20390;-78
2021/12/03 04:06:15;;;;;;;85.63;46.40;;;;;;;0.62;95.60;100965.00;5130864;27;20031;-78
2021/12/03 04:08:42;;;;;;;94.20;43.80;;;;;;;0.69;95.78;100960.47;5099989;28;20040;-78
2021/12/03 04:11:07;;;;;;;77.90;40.47;;;;;;;0.79;95.24;100961.13;5113099;28;20031;-79
2021/12/03 04:13:33;;;;;;;73.43;39.37;;;;;;;0.70;95.15;100937.78;5125461;27;20039;-79
2021/12/03 04:15:58;;;;;;;72.13;39.70;;;;;;;0.76;95.49;100950.75;5133842;27;20027;-78
2021/12/03 04:18:23;;;;;;;74.30;37.20;;;;;;;0.76;95.29;100940.25;5133251;28;20055;-78
2021/12/03 04:20:49;;;;;;;75.53;39.17;;;;;;;0.68;95.43;100935.22;5133799;28;20023;-79
2021/12/03 04:23:18;;;;;;;65.67;36.83;;;;;;;0.63;95.67;100937.91;5114735;28;20042;-79
2021/12/03 04:25:44;;;;;;;65.83;39.10;;;;;;;0.70;95.21;100937.78;5133002;28;20019;-79
2021/12/03 04:28:09;;;;;;;73.53;38.70;;;;;;;0.83;95.71;100952.34;5133237;28;20038;-79
2021/12/03 04:30:35;;;;;;;67.50;38.63;;;;;;;0.85;94.90;100953.16;5133090;28;20023;-78
2021/12/03 04:33:01;;;;;;;74.47;38.70;;;;;;;0.87;95.03;100952.25;5133239;28;20062;-78
2021/12/03 04:35:27;;;;;;;63.77;36.83;;;;;;;0.84;95.35;100952.31;5133335;28;20097;-79
2021/12/03 04:37:53;;;;;;;70.10;39.83;;;;;;;0.77;95.63;100924.53;5134821;27;20509;-78
2021/12/03 04:40:21;;;;;;;80.57;40.23;;;;;;;0.87;95.22;100944.38;5137505;27;20055;-79
2021/12/03 04:42:46;;;;;;;67.70;38.67;;;;;;;0.84;95.32;100956.69;5118476;27;20473;-79
2021/12/03 04:45:14;;;;;;;70.83;40.43;;;;;;;0.77;95.55;100969.03;5136892;27;20039;-79
2021/12/03 04:47:39;;;;;;;72.20;39.57;;;;;;;0.83;95.69;100968.91;5136491;27;20154;-79
2021/12/03 04:50:08;;;;;;;72.30;40.70;;;;;;;0.87;95.60;100969.72;5137202;27;20070;-79
2021/12/03 04:52:33;;;;;;;74.33;40.33;;;;;;;0.85;95.10;100954.03;5118760;27;20019;-79
2021/12/03 04:54:58;;;;;;;66.53;38.77;;;;;;;0.88;95.30;100951.38;5137394;27;20037;-78
2021/12/03 04:57:24;;;;;;;67.77;37.47;;;;;;;0.80;95.11;100953.28;5136734;27;20091;-79
2021/12/03 04:59:49;;;;;;;61.37;37.77;;;;;;;0.78;95.56;100943.72;5136944;27;20084;-80
2021/12/03 05:02:16;;;;;;;63.93;36.67;;;;;;;0.92;95.48;100952.16;5124605;27;20039;-79
2021/12/03 05:04:41;;;;;;;62.10;34.13;;;;;;;0.86;95.08;100941.81;5128317;27;20043;-78
2021/12/03 05:09:34;;;;;;;55.13;31.90;;;;;;;0.79;95.42;100925.34;5136371;27;20046;-79
2021/12/03 05:12:00;;;;;;;49.77;30.70;;;;;;;0.81;94.93;100920.09;5117703;27;20043;-78
2021/12/03 05:14:26;;;;;;;49.77;27.33;;;;;;;0.89;94.75;100939.13;5136176;27;20031;-79
2021/12/03 05:16:52;;;;;;;43.93;27.77;;;;;;;0.84;95.20;100922.66;5136942;27;20038;-78
2021/12/03 05:19:17;;;;;;;45.37;26.63;;;;;;;0.82;94.69;100913.97;5135960;27;20031;-78
2021/12/03 05:21:43;;;;;;;43.43;25.50;;;;;;;1.01;94.42;100919.66;5136657;27;20479;-79
2021/12/03 05:24:09;;;;;;;42.30;24.90;;;;;;;0.78;94.51;100899.22;5136562;27;20023;-78
2021/12/03 05:26:36;;;;;;;39.93;23.17;;;;;;;0.92;94.91;100932.97;5136352;27;20038;-79
2021/12/03 05:29:03;;;;;;;35.20;22.63;;;;;;;0.85;94.48;100924.34;5136255;27;20027;-78
2021/12/03 05:31:28;;;;;;;35.17;21.60;;;;;;;0.80;94.85;100913.16;5120998;27;20114;-78
2021/12/03 05:33:54;;;;;;;37.60;21.73;;;;;;;0.85;94.53;100935.72;5135968;27;20085;-79
2021/12/03 05:36:19;;;;;;;30.97;19.07;;;;;;;0.83;94.54;100934.88;5136357;27;20019;-79
2021/12/03 05:38:44;;;;;;;36.30;20.60;;;;;;;0.86;95.00;100939.19;5117456;27;20039;-78
2021/12/03 05:41:10;;;;;;;34.87;19.67;;;;;;;0.78;94.90;100930.63;5136009;27;20110;-78
2021/12/03 05:43:35;;;;;;;40.03;19.70;;;;;;;0.84;94.41;100928.75;5116850;27;20031;-79
2021/12/03 05:46:01;;;;;;;34.03;18.47;;;;;;;0.83;94.69;100939.25;5136423;27;20027;-79
2021/12/03 05:48:26;;;;;;;34.97;18.33;;;;;;;0.83;94.64;100941.88;5136010;27;20035;-79
2021/12/03 05:50:52;;;;;;;31.73;17.67;;;;;;;0.85;94.35;100948.81;5135839;27;20395;-78
2021/12/03 05:53:17;;;;;;;34.57;17.27;;;;;;;0.74;94.33;100929.00;5135959;27;20042;-79
2021/12/03 05:55:43;;;;;;;34.37;16.83;;;;;;;0.71;94.00;100921.16;5136293;27;20109;-79
2021/12/03 05:58:09;;;;;;;36.80;17.60;;;;;;;0.80;94.44;100934.09;5135625;27;20026;-78
2021/12/03 06:00:38;;;;;;;30.70;16.77;;;;;;;0.88;94.01;100958.31;5135910;27;20084;-79
2021/12/03 06:03:04;;;;;;;44.27;18.07;;;;;;;0.80;94.39;100932.34;5135510;27;20038;-77
2021/12/03 06:05:30;;;;;;;35.10;16.13;;;;;;;0.87;94.02;100936.53;5135258;27;20054;-79
2021/12/03 06:07:57;;;;;;;27.70;16.13;;;;;;;0.86;94.13;100939.19;5143481;27;20034;-78
2021/12/03 06:10:22;;;;;;;33.33;15.87;;;;;;;0.87;93.97;100940.91;5128474;27;20054;-78
2021/12/03 06:12:49;;;;;;;33.93;16.67;;;;;;;0.88;93.77;100942.63;5135400;27;20035;-79
2021/12/03 06:15:16;;;;;;;33.53;15.70;;;;;;;0.84;93.80;100933.97;5135140;27;20087;-79
2021/12/03 06:17:41;;;;;;;31.57;15.87;;;;;;;0.82;93.41;100914.81;5135635;27;20030;-79
2021/12/03 06:20:08;;;;;;;32.20;15.93;;;;;;;0.90;93.66;100930.38;5135649;27;20027;-79
2021/12/03 06:22:34;;;;;;;31.47;15.17;;;;;;;0.90;93.19;100922.50;5134948;27;20381;-78
2021/12/03 06:25:01;;;;;;;26.43;14.10;;;;;;;0.95;92.83;100927.66;5135249;27;20031;-79
2021/12/03 06:27:29;;;;;;;30.97;15.03;;;;;;;0.78;92.61;100912.31;5135360;27;20030;-78
2021/12/03 06:29:54;;;;;;;28.10;14.33;;;;;;;0.84;92.09;100923.50;5116483;27;20487;-79
2021/12/03 06:32:19;;;;;;;27.63;14.30;;;;;;;0.87;92.17;100925.19;5134990;27;20062;-79
2021/12/03 06:34:45;;;;;;;31.77;14.47;;;;;;;0.84;92.02;100918.25;5135348;27;20737;-78
2021/12/03 06:37:10;;;;;;;32.97;14.43;;;;;;;0.93;92.00;100926.81;5116333;27;20036;-79
2021/12/03 06:39:36;;;;;;;27.50;14.60;;;;;;;0.92;91.64;100919.88;5135151;27;20038;-78
2021/12/03 06:42:02;;;;;;;26.67;13.27;;;;;;;0.92;91.39;100930.34;5135292;27;20066;-79
2021/12/03 06:44:28;;;;;;;29.67;13.80;;;;;;;0.88;90.71;100905.97;5134015;27;20114;-79
2021/12/03 06:46:53;;;;;;;28.60;14.80;;;;;;;0.85;91.21;100914.78;5116210;27;20035;-78
2021/12/03 06:49:21;;;;;;;30.90;13.60;;;;;;;0.90;90.23;100917.28;5116436;27;20442;-78
2021/12/03 06:51:47;;;;;;;25.37;13.57;;;;;;;0.87;90.04;100915.59;5135137;27;20023;-79
2021/12/03 06:54:13;;;;;;;29.37;12.07;;;;;;;0.84;90.75;100923.50;5134613;27;20046;-79
2021/12/03 06:56:48;;;;;;;31.57;13.80;;;;;;;0.82;90.10;100916.56;5135122;27;20041;-78
2021/12/03 06:59:16;;;;;;;26.10;12.57;;;;;;;0.83;90.75;100923.56;5133947;27;20060;-79
2021/12/03 07:01:42;;;;;;;26.43;13.77;;;;;;;0.87;90.30;100936.53;5134296;27;20019;-78
2021/12/03 07:04:08;;;;;;;28.50;14.20;;;;;;;0.79;90.53;100922.72;5115615;27;20045;-78
2021/12/03 07:06:33;;;;;;;29.77;11.73;;;;;;;0.88;90.11;100946.13;5134523;27;20101;-79
2021/12/03 07:08:59;;;;;;;31.07;13.10;;;;;;;0.81;89.85;100914.88;5134269;27;20574;-79
2021/12/03 07:11:24;;;;;;;29.07;13.90;;;;;;;0.87;89.52;100926.06;5134553;27;20042;-79
2021/12/03 07:13:49;;;;;;;33.97;13.43;;;;;;;0.82;90.08;100922.66;5132961;27;20079;-79
2021/12/03 07:16:15;;;;;;;25.73;12.27;;;;;;;0.74;89.66;100910.66;5134264;27;20096;-81
2021/12/03 07:18:42;;;;;;;26.40;11.70;;;;;;;0.85;89.30;100914.78;5104955;27;20084;-79
2021/12/03 07:21:08;;;;;;;26.23;11.93;;;;;;;0.81;89.59;100920.09;5132172;27;20019;-79
2021/12/03 07:23:33;;;;;;;22.97;12.30;;;;;;;0.85;89.78;100909.53;5115269;27;20038;-79
2021/12/03 07:26:00;;;;;;;26.73;13.00;;;;;;;0.82;89.58;100893.88;5134281;27;20484;-80
2021/12/03 07:28:26;;;;;;;25.10;12.83;;;;;;;0.80;89.44;100886.97;5134055;27;20027;-78
2021/12/03 07:30:52;;;;;;;28.40;11.37;;;;;;;0.76;88.49;100874.81;5134177;27;20038;-80
2021/12/03 07:33:18;;;;;;;29.73;12.30;;;;;;;0.92;88.69;100893.69;5113473;27;20039;-78
2021/12/03 07:35:45;;;;;;;31.80;12.17;;;;;;;0.86;88.63;100895.53;5134003;27;20114;-79
2021/12/03 07:38:15;;;;;;;30.77;11.70;;;;;;;0.81;88.37;100891.31;5132885;27;20039;-79
2021/12/03 07:40:42;;;;;;;29.45;13.07;;;;;;;0.82;89.22;100895.63;5115096;27;20141;-78
2021/12/03 07:43:08;;;;;;;28.33;12.27;;;;;;;0.88;88.85;100909.47;5130164;27;20030;-79
2021/12/03 07:45:34;;;;;;;26.27;11.77;;;;;;;0.89;88.90;100912.94;5133581;27;20537;-79
2021/12/03 07:47:59;;;;;;;29.57;13.53;;;;;;;0.85;89.51;100906.03;5134080;27;20160;-78
2021/12/03 07:50:25;;;;;;;27.97;11.90;;;;;;;0.91;89.32;100908.50;5115668;27;20050;-79
2021/12/03 07:52:50;;;;;;;25.87;11.60;;;;;;;0.85;88.96;100882.47;5134112;27;20027;-80
2021/12/03 07:55:15;;;;;;;31.57;13.27;;;;;;;0.89;89.38;100899.84;5133874;27;20030;-78
2021/12/03 07:57:41;;;;;;;25.83;10.73;;;;;;;0.88;88.97;100900.72;5134061;27;20106;-79
2021/12/03 08:00:08;;;;;;;30.03;11.83;;;;;;;0.98;88.84;100904.88;5115387;27;20476;-80
2021/12/03 08:02:34;;;;;;;28.87;10.93;;;;;;;1.02;88.77;100900.44;5133339;27;20033;-79
2021/12/03 08:04:59;;;;;;;29.90;12.10;;;;;;;0.93;89.01;100893.63;5133716;27;20462;-79
2021/12/03 08:07:25;;;;;;;33.70;11.30;;;;;;;0.98;89.90;100891.78;5134012;27;20031;-79
2021/12/03 08:09:51;;;;;;;29.47;11.47;;;;;;;0.93;88.93;100887.56;5133269;27;20034;-79
2021/12/03 08:12:16;;;;;;;34.60;11.30;;;;;;;1.02;89.12;100900.44;5113316;27;20032;-78
2021/12/03 08:14:42;;;;;;;31.03;10.50;;;;;;;0.96;88.93;100892.72;5133279;27;20491;-80
2021/12/03 08:17:08;;;;;;;30.90;10.27;;;;;;;1.05;88.84;100908.22;5133757;28;20019;-78
2021/12/03 08:19:34;;;;;;;30.50;10.40;;;;;;;1.08;89.08;100898.53;5133698;28;20385;-80
2021/12/03 08:22:00;;;;;;;29.87;10.47;;;;;;;1.06;88.68;100886.34;5133562;28;20015;-78
2021/12/03 08:24:25;;;;;;;25.73;10.17;;;;;;;1.02;88.97;100877.72;5133443;28;20035;-79
2021/12/03 08:26:50;;;;;;;30.30;9.70;;;;;;;1.16;88.53;100880.03;5133629;28;20461;-79
2021/12/03 08:29:16;;;;;;;25.50;9.73;;;;;;;1.09;88.29;100876.69;5133482;28;20058;-78
2021/12/03 08:31:41;;;;;;;31.20;9.20;;;;;;;1.10;88.42;100878.41;5133116;28;20530;-79
2021/12/03 08:34:08;;;;;;;35.67;11.17;;;;;;;1.23;88.30;100893.81;5133222;28;20015;-79
2021/12/03 08:36:34;;;;;;;30.73;9.87;;;;;;;1.20;88.62;100896.50;5133511;28;20125;-79
2021/12/03 08:38:59;;;;;;;23.40;9.40;;;;;;;1.17;88.58;100880.88;5114985;28;20441;-78
2021/12/03 08:41:24;;;;;;;33.10;9.40;;;;;;;1.25;88.56;100900.75;5133336;28;20029;-79
2021/12/03 08:43:50;;;;;;;31.87;10.53;;;;;;;1.21;88.62;100893.03;5132722;28;20023;-79
2021/12/03 08:46:24;;;;;;;29.43;9.10;;;;;;;1.17;88.95;100878.25;5133212;28;20031;-79
2021/12/03 08:48:50;;;;;;;22.40;9.30;;;;;;;1.31;88.85;100897.13;5133224;28;20522;-79
2021/12/03 08:56:25;;;;;;;26.50;8.90;;;;;;;1.32;88.38;100870.91;5133576;28;20088;-80
2021/12/03 08:58:51;;;;;;;25.47;10.27;;;;;;;1.35;88.33;100875.19;5132982;28;20392;-80
2021/12/03 09:01:16;;;;;;;26.57;11.17;;;;;;;1.50;88.27;100884.41;5133286;28;20023;-80
2021/12/03 09:03:44;;;;;;;29.03;9.83;;;;;;;1.46;88.36;100867.91;5114056;28;20534;-80
2021/12/03 09:06:10;;;;;;;30.80;10.50;;;;;;;1.48;88.55;100876.63;5114352;28;20047;-82
2021/12/03 09:08:35;;;;;;;35.83;11.07;;;;;;;1.46;87.83;100873.16;5133098;28;20035;-78
2021/12/03 09:11:01;;;;;;;26.50;9.83;;;;;;;1.60;87.46;100885.94;5132749;28;20524;-81
2021/12/03 09:13:27;;;;;;;23.97;9.77;;;;;;;1.56;87.95;100887.78;5132979;28;20489;-78
2021/12/03 09:16:03;;;;;;;28.07;11.00;;;;;;;1.56;88.09;100877.28;5132753;27;20447;-81
2021/12/03 09:18:32;;;;;;;51.40;11.97;;;;;;;1.62;87.96;100881.50;5132882;28;20377;-78
2021/12/03 09:21:12;;;;;;;30.20;10.77;;;;;;;1.57;88.41;100876.38;5132618;28;20019;-80
2021/12/03 09:23:52;;;;;;;28.98;11.63;;;;;;;1.67;88.12;100876.13;5134172;27;20042;-79
2021/12/03 09:26:19;;;;;;;32.47;11.37;;;;;;;1.66;88.09;100870.03;5143139;27;20397;-81
2021/12/03 09:28:48;;;;;;;35.97;12.13;;;;;;;1.67;88.42;100868.28;5136527;27;20027;-83
2021/12/03 09:31:15;;;;;;;25.00;10.90;;;;;;;1.73;88.27;100860.25;5117659;27;20031;-81
2021/12/03 09:33:43;;;;;;;29.77;10.53;;;;;;;1.75;88.23;100856.69;5136560;27;20019;-83
2021/12/03 09:36:10;;;;;;;20.50;9.33;;;;;;;1.85;88.12;100859.06;5136579;27;20103;-82
2021/12/03 09:38:36;;;;;;;26.20;10.40;;;;;;;1.84;87.92;100857.34;5136416;27;20492;-81
2021/12/03 09:41:07;;;;;;;34.90;10.63;;;;;;;1.89;87.28;100858.94;5117661;27;20051;-79
2021/12/03 09:43:35;;;;;;;25.00;9.90;;;;;;;1.97;87.26;100866.59;5136728;27;20469;-78
2021/12/03 09:46:09;;;;;;;36.40;11.83;;;;;;;1.79;87.14;100844.34;5136452;27;20031;-80
2021/12/03 09:49:15;;;;;;;26.83;11.10;;;;;;;1.75;87.77;100827.00;5136093;27;20043;-82
2021/12/03 09:51:25;;;;;;;28.00;9.73;;;;;;;1.95;88.03;100850.06;5135395;27;20472;-80
2021/12/03 09:54:19;;;;;;;22.13;9.30;;;;;;;1.99;87.86;100846.44;5136306;27;20096;-80
2021/12/03 09:56:45;;;;;;;26.97;9.50;;;;;;;1.97;88.07;100829.88;5136231;27;20023;-81
2021/12/03 10:15:11;;;;;;;25.20;9.43;;;;;;;2.02;87.66;100801.75;5135660;27;20126;-80
2021/12/03 10:27:05;;;;;;;23.90;9.77;;;;;;;2.18;87.30;100762.84;5135967;27;20038;-78
2021/12/03 10:38:08;;;;;;;24.73;9.20;;;;;;;2.39;86.82;100746.44;5072244;28;20369;-82
2021/12/03 11:19:29;;;;;;;25.00;12.20;;;;;;;2.91;85.36;100678.22;5031434;28;20037;-81
2021/12/03 12:33:30;;;;;;;16.27;7.82;;;;;;;3.67;79.83;100535.25;5010881;28;20034;-82
2021/12/03 14:14:35;;;;;;;9.93;6.07;;;;;;;3.29;81.67;100390.41;5072338;28;20037;-80
2021/12/03 14:22:44;;;;;;;10.45;6.13;;;;;;;3.49;82.88;100423.78;5072425;28;20032;-81
2021/12/03 14:56:09;;;;;;;12.10;6.75;;;;;;;3.32;86.32;100418.34;5135171;27;20027;-80
2021/12/03 15:04:19;;;;;;;9.85;6.53;;;;;;;3.34;86.66;100422.63;5114275;28;20042;-83
2021/12/03 15:07:04;;;;;;;7.90;6.55;;;;;;;3.37;86.29;100419.03;5114184;28;20379;-81
2021/12/03 15:09:35;;;;;;;9.93;6.28;;;;;;;3.29;86.46;100408.81;5115359;27;20019;-81
2021/12/03 15:25:38;;;;;;;7.15;6.00;;;;;;;3.47;86.89;100415.13;5134761;27;20108;-79
2021/12/03 15:36:17;;;;;;;12.10;6.68;;;;;;;3.45;88.15;100401.19;5134075;27;20369;-80
2021/12/03 15:38:48;;;;;;;7.50;5.53;;;;;;;3.47;87.99;100390.59;5115765;27;20388;-82
2021/12/03 15:54:49;;;;;;;8.32;6.35;;;;;;;3.25;91.48;100383.59;5123660;27;20410;-78
2021/12/03 16:05:59;;;;;;;7.97;6.95;;;;;;;3.31;91.93;100377.22;5124442;27;20103;-80
2021/12/03 16:11:11;;;;;;;8.32;6.60;;;;;;;3.22;91.55;100362.69;5063318;28;20033;-79
2021/12/03 16:14:04;;;;;;;7.82;7.05;;;;;;;3.17;93.29;100357.59;5060864;28;20028;-81
2021/12/03 16:19:21;;;;;;;12.88;7.00;;;;;;;3.18;92.88;100346.19;5059944;28;20048;-81
2021/12/03 16:54:09;;;;;;;7.72;6.75;;;;;;;3.21;94.05;100326.84;5073453;28;20068;-81
2021/12/03 16:56:36;;;;;;;7.27;6.67;;;;;;;3.09;94.03;100307.16;5067694;28;20089;-79
2021/12/03 16:59:03;;;;;;;8.15;7.45;;;;;;;3.21;94.59;100324.19;5069396;28;20065;-81
2021/12/03 17:01:39;;;;;;;7.77;7.07;;;;;;;3.13;94.86;100314.00;5070753;28;20031;-81
2021/12/03 17:04:15;;;;;;;9.23;7.00;;;;;;;3.15;95.08;100321.84;5071632;28;20075;-78
2021/12/03 17:47:06;;;;;;;8.10;7.40;;;;;;;3.14;95.05;100230.78;5136235;27;20074;-81
2021/12/03 17:49:43;;;;;;;9.13;7.05;;;;;;;3.16;95.87;100236.81;5135905;27;20023;-79
2021/12/03 17:57:44;;;;;;;7.20;6.60;;;;;;;3.14;95.43;100218.47;5136160;27;20055;-81
2021/12/03 18:00:16;;;;;;;8.20;7.50;;;;;;;3.17;95.88;100231.50;5136058;27;20015;-79
2021/12/03 18:02:47;;;;;;;7.35;6.75;;;;;;;3.08;95.49;100212.66;5135550;27;20015;-82
2021/12/03 18:07:50;;;;;;;9.32;8.52;;;;;;;3.19;94.98;100219.16;5135928;27;20161;-80
2021/12/03 18:56:56;;;;;;;7.45;6.85;;;;;;;3.27;94.13;100192.56;5133049;27;20817;-80
2021/12/03 18:59:05;;;;;;;8.05;6.95;;;;;;;3.21;94.63;100195.44;5126272;27;20039;-81
2021/12/03 19:01:33;;;;;;;7.45;6.78;;;;;;;3.21;94.40;100194.56;5135007;27;20022;-82
2021/12/03 19:04:14;;;;;;;7.25;6.65;;;;;;;3.24;95.03;100208.44;5134848;27;20431;-79
2021/12/03 19:06:51;;;;;;;6.70;6.20;;;;;;;3.28;94.42;100209.16;5134316;27;20075;-82
2021/12/03 19:09:42;;;;;;;7.78;7.07;;;;;;;3.27;95.60;100205.69;5134682;27;20469;-79